Syria, Indiana
Current Conditions -  °F | °C
As of 1:22 PM on Monday 22 Dec 2014 (Local Time) from KBMG Reporting Station
Overcast Overcast  
Wind Chill: 38°   Ceiling: 3000
Heat Index: 43°   Visibility: 10mi
Dew Point: 37°   Wind: 8mph
Humidity: 80%   Direction: 150°SSE
Pressure: 29.81"   Gusts: NA
Location:  38.6433°N, 86.4481°W
Report Text: KBMG 221822Z 15007KT 10SM OVC030 06/03 A2981 RMK AO2 T00610028
Loading
Personal Weather Stations






























Interactive Weather Map New forecast layout! Learn more

10-Day Weather Forecast

Advertisements
Track Severe Weather on mobile